Time;durP1;ratioP1;P1;durP2;ratioP2;P2;SDS_P1;SDS_P2;PMS_P1;PMS_P2;Temp;Humidity;BMP_temperature;BMP_pressure;BME280_temperature;BME280_humidity;BME280_pressure;Samples;Min_cycle;Max_cycle;Signal;HPM_P1;HPM_P2
2021/12/28 00:01:32;;;;;;;11.33;8.97;;;7.90;99.90;;;;;;5056314;28;20516;-61
2021/12/28 00:04:04;;;;;;;14.37;9.80;;;7.90;99.90;;;;;;5057167;28;20954;-61
2021/12/28 00:06:33;;;;;;;11.53;9.73;;;7.90;99.90;;;;;;5060507;28;20470;-61
2021/12/28 00:09:04;;;;;;;13.03;9.30;;;7.90;99.90;;;;;;5060074;28;20753;-61
2021/12/28 00:11:34;;;;;;;12.93;9.30;;;7.90;99.90;;;;;;5059999;28;20507;-61
2021/12/28 00:14:02;;;;;;;10.10;8.47;;;7.90;99.90;;;;;;5060352;28;20490;-61
2021/12/28 00:16:33;;;;;;;11.20;8.87;;;7.90;99.90;;;;;;5060412;28;20466;-61
2021/12/28 00:19:00;;;;;;;11.40;9.77;;;7.80;99.90;;;;;;5059808;28;20473;-61
2021/12/28 00:21:28;;;;;;;10.63;9.00;;;7.80;99.90;;;;;;5059673;28;20550;-61
2021/12/28 00:23:55;;;;;;;10.70;8.83;;;7.80;99.90;;;;;;5060227;28;20487;-61
2021/12/28 00:26:24;;;;;;;12.93;9.83;;;7.80;99.90;;;;;;5060219;28;20466;-61
2021/12/28 00:28:51;;;;;;;10.03;9.00;;;7.80;99.90;;;;;;5060361;28;20466;-61
2021/12/28 00:31:19;;;;;;;11.17;8.90;;;7.70;99.90;;;;;;5059573;28;20470;-61
2021/12/28 00:33:46;;;;;;;11.47;9.13;;;7.70;99.90;;;;;;5045721;28;20821;-61
2021/12/28 00:36:15;;;;;;;9.70;8.40;;;7.60;99.90;;;;;;5060043;28;20832;-61
2021/12/28 00:38:42;;;;;;;13.77;10.17;;;7.60;99.90;;;;;;5060074;28;20867;-62
2021/12/28 00:41:09;;;;;;;10.17;8.23;;;7.70;99.90;;;;;;5059953;28;20750;-61
2021/12/28 00:43:38;;;;;;;12.30;9.27;;;7.60;99.90;;;;;;5059981;28;20945;-61
2021/12/28 00:46:07;;;;;;;10.33;8.33;;;7.60;99.90;;;;;;5059819;28;20458;-61
2021/12/28 00:48:34;;;;;;;15.13;9.00;;;7.50;99.90;;;;;;5059468;28;20466;-61
2021/12/28 00:51:01;;;;;;;13.03;9.00;;;7.50;99.90;;;;;;5059352;28;20466;-61
2021/12/28 00:53:29;;;;;;;11.40;7.67;;;7.50;99.90;;;;;;5059383;28;20490;-61
2021/12/28 00:55:56;;;;;;;13.73;9.40;;;7.50;99.90;;;;;;5059976;28;20458;-61
2021/12/28 00:58:26;;;;;;;17.47;8.43;;;7.50;99.90;;;;;;5060076;28;20462;-61
2021/12/28 01:00:54;;;;;;;11.97;8.20;;;7.50;99.90;;;;;;5059662;28;20473;-61
2021/12/28 01:03:21;;;;;;;11.60;8.20;;;7.50;99.90;;;;;;5059436;28;20524;-61
2021/12/28 01:05:49;;;;;;;12.50;7.77;;;7.50;99.90;;;;;;5059541;28;20933;-61
2021/12/28 01:08:17;;;;;;;11.30;7.07;;;7.50;99.90;;;;;;5059195;28;20835;-61
2021/12/28 01:10:47;;;;;;;11.10;6.90;;;7.40;99.90;;;;;;5059129;28;20835;-61
2021/12/28 01:13:14;;;;;;;11.27;7.53;;;7.40;99.90;;;;;;5059074;28;20454;-61
2021/12/28 01:15:42;;;;;;;8.53;7.30;;;7.40;99.90;;;;;;5058612;28;20470;-61
2021/12/28 01:18:14;;;;;;;9.97;7.07;;;7.40;99.90;;;;;;5059180;28;20466;-61
2021/12/28 01:20:45;;;;;;;9.80;6.77;;;7.40;99.90;;;;;;5059261;28;20887;-61
2021/12/28 01:23:12;;;;;;;9.50;7.10;;;7.40;99.90;;;;;;5059302;28;20486;-61
2021/12/28 01:25:40;;;;;;;9.30;6.97;;;7.40;99.90;;;;;;5058772;28;20470;-61
2021/12/28 01:28:08;;;;;;;12.50;6.27;;;7.40;99.90;;;;;;5059242;28;20508;-61
2021/12/28 01:30:36;;;;;;;11.57;6.00;;;7.40;99.90;;;;;;5059037;28;20519;-61
2021/12/28 01:33:04;;;;;;;13.90;6.40;;;7.40;99.90;;;;;;5058481;28;20826;-61
2021/12/28 01:35:36;;;;;;;8.50;6.20;;;7.40;99.90;;;;;;5058418;28;20531;-61
2021/12/28 01:38:04;;;;;;;11.10;6.73;;;7.50;99.90;;;;;;5058955;28;20888;-61
2021/12/28 01:40:35;;;;;;;10.00;6.00;;;7.50;99.90;;;;;;5058847;28;20512;-61
2021/12/28 01:43:08;;;;;;;14.73;6.13;;;7.40;99.90;;;;;;5058359;28;20462;-61
2021/12/28 01:45:40;;;;;;;8.37;5.30;;;7.40;99.90;;;;;;5058724;28;20465;-62
2021/12/28 01:48:08;;;;;;;10.50;5.40;;;7.50;99.90;;;;;;5058728;28;20516;-61
2021/12/28 01:50:37;;;;;;;13.43;6.50;;;7.50;99.90;;;;;;5058590;28;20550;-61
2021/12/28 01:53:06;;;;;;;9.97;5.73;;;7.50;99.90;;;;;;5058666;28;20798;-61
2021/12/28 01:55:33;;;;;;;16.87;6.07;;;7.50;99.90;;;;;;5058317;28;20502;-61
2021/12/28 01:58:01;;;;;;;10.80;5.27;;;7.50;99.90;;;;;;5058694;28;20466;-61
2021/12/28 02:00:28;;;;;;;11.57;6.00;;;7.50;99.90;;;;;;5058589;28;20462;-61
2021/12/28 02:02:55;;;;;;;17.47;6.40;;;7.50;99.90;;;;;;5058567;28;20462;-61
2021/12/28 02:05:22;;;;;;;6.40;4.70;;;7.50;99.90;;;;;;5058211;28;20520;-61
2021/12/28 02:07:51;;;;;;;15.33;6.20;;;7.50;99.90;;;;;;5058129;28;20871;-61
2021/12/28 02:10:18;;;;;;;16.37;7.03;;;7.60;99.90;;;;;;5058451;28;20965;-61
2021/12/28 02:12:45;;;;;;;15.47;5.50;;;7.60;99.90;;;;;;5058281;28;20469;-61
2021/12/28 02:15:15;;;;;;;14.73;6.03;;;7.60;99.90;;;;;;5057099;28;20494;-60
2021/12/28 02:17:43;;;;;;;11.10;5.27;;;7.70;99.90;;;;;;5058046;28;20830;-61
2021/12/28 02:20:18;;;;;;;19.80;7.10;;;7.70;99.90;;;;;;5057648;28;20543;-61
2021/12/28 02:22:45;;;;;;;9.10;5.03;;;7.70;99.90;;;;;;5058462;28;20937;-61
2021/12/28 02:25:14;;;;;;;13.67;6.13;;;7.60;99.90;;;;;;5057863;28;20462;-61
2021/12/28 02:27:42;;;;;;;9.53;5.30;;;7.70;99.90;;;;;;5056878;28;20458;-61
2021/12/28 02:30:12;;;;;;;17.70;5.20;;;7.60;99.90;;;;;;5057921;28;20531;-61
2021/12/28 02:32:42;;;;;;;8.60;5.03;;;7.70;99.90;;;;;;5058051;28;20463;-61
2021/12/28 02:35:13;;;;;;;11.80;5.37;;;7.60;99.90;;;;;;5057382;28;20947;-61
2021/12/28 02:37:42;;;;;;;15.60;6.03;;;7.70;99.90;;;;;;5057932;28;20463;-61
2021/12/28 02:40:13;;;;;;;11.50;6.00;;;7.60;99.90;;;;;;5057818;28;20462;-61
2021/12/28 02:42:43;;;;;;;15.40;5.80;;;7.70;99.90;;;;;;5057344;28;20864;-61
2021/12/28 02:45:13;;;;;;;9.93;5.97;;;7.70;99.90;;;;;;5057181;28;20462;-61
2021/12/28 02:47:41;;;;;;;14.73;5.63;;;7.70;99.90;;;;;;5057401;28;20516;-61
2021/12/28 02:50:12;;;;;;;12.03;5.73;;;7.70;99.90;;;;;;5057618;28;20799;-61
2021/12/28 02:52:40;;;;;;;15.97;6.13;;;7.60;99.90;;;;;;5057821;28;20462;-61
2021/12/28 02:55:09;;;;;;;11.63;5.10;;;7.70;99.90;;;;;;5057097;28;20494;-61
2021/12/28 02:57:37;;;;;;;19.47;6.20;;;7.80;99.90;;;;;;5057445;28;20888;-61
2021/12/28 03:00:07;;;;;;;17.00;5.70;;;7.70;99.90;;;;;;5057376;28;20462;-61
2021/12/28 03:02:34;;;;;;;14.07;6.27;;;7.70;99.90;;;;;;5057357;28;20867;-61
2021/12/28 03:05:01;;;;;;;18.70;5.80;;;7.70;99.90;;;;;;5056950;28;20884;-61
2021/12/28 03:07:32;;;;;;;24.73;6.97;;;7.70;99.90;;;;;;5057081;28;20868;-61
2021/12/28 03:09:59;;;;;;;19.40;6.13;;;7.70;99.90;;;;;;5057326;28;20490;-58
2021/12/28 03:12:26;;;;;;;16.93;7.23;;;7.70;99.90;;;;;;5057107;28;20462;-59
2021/12/28 03:14:53;;;;;;;20.97;5.23;;;7.70;99.90;;;;;;5057120;28;21198;-61
2021/12/28 03:17:20;;;;;;;16.17;6.30;;;7.80;99.90;;;;;;5056710;28;20490;-61
2021/12/28 03:19:47;;;;;;;19.83;5.80;;;7.70;99.90;;;;;;5056969;28;20466;-59
2021/12/28 03:22:14;;;;;;;17.27;6.33;;;7.80;99.90;;;;;;5056882;28;20512;-59
2021/12/28 03:24:42;;;;;;;18.33;5.13;;;7.80;99.90;;;;;;5057050;28;20520;-60
2021/12/28 03:27:11;;;;;;;30.23;6.30;;;7.80;99.90;;;;;;5056895;28;20466;-61
2021/12/28 03:29:39;;;;;;;21.63;5.20;;;7.80;99.90;;;;;;5056922;28;20934;-60
2021/12/28 03:32:06;;;;;;;17.40;5.23;;;7.80;99.90;;;;;;5056766;28;20437;-61
2021/12/28 03:34:33;;;;;;;16.57;5.77;;;7.90;99.90;;;;;;5056956;28;20489;-61
2021/12/28 03:37:00;;;;;;;19.00;5.27;;;7.90;99.90;;;;;;5056265;28;20462;-61
2021/12/28 03:39:27;;;;;;;18.30;5.30;;;7.80;99.90;;;;;;5056121;28;20466;-61
2021/12/28 03:41:58;;;;;;;15.07;6.20;;;7.90;99.90;;;;;;5056502;28;20516;-61
2021/12/28 03:44:25;;;;;;;12.30;4.70;;;7.90;99.90;;;;;;5056933;28;20459;-61
2021/12/28 03:46:52;;;;;;;15.60;4.63;;;7.90;99.90;;;;;;5056140;28;20464;-61
2021/12/28 03:49:19;;;;;;;19.87;7.13;;;7.90;99.90;;;;;;5056617;28;20933;-61
2021/12/28 03:51:46;;;;;;;16.57;5.73;;;7.90;99.90;;;;;;5056807;28;20461;-61
2021/12/28 03:54:13;;;;;;;17.70;6.67;;;7.90;99.90;;;;;;5056807;28;20498;-61
2021/12/28 03:56:40;;;;;;;19.73;5.47;;;7.90;99.90;;;;;;5056591;28;20813;-61
2021/12/28 03:59:10;;;;;;;19.30;6.70;;;7.90;99.90;;;;;;5056534;28;20469;-61
2021/12/28 04:01:37;;;;;;;17.20;5.63;;;7.90;99.90;;;;;;5056430;28;20462;-61
2021/12/28 04:04:05;;;;;;;16.27;4.83;;;7.90;99.90;;;;;;5056491;28;20462;-61
2021/12/28 04:06:32;;;;;;;13.67;5.10;;;7.90;99.90;;;;;;5056042;28;20470;-61
2021/12/28 04:09:02;;;;;;;21.30;6.77;;;8.00;99.90;;;;;;5056084;28;20486;-61
2021/12/28 04:11:29;;;;;;;19.07;6.90;;;8.00;99.90;;;;;;5056047;28;20500;-60
2021/12/28 04:13:59;;;;;;;24.47;4.90;;;8.00;99.90;;;;;;5056146;28;20466;-58
2021/12/28 04:16:29;;;;;;;20.80;5.70;;;8.00;99.90;;;;;;5056492;28;20451;-61
2021/12/28 04:18:57;;;;;;;14.90;5.00;;;8.00;99.90;;;;;;5056901;28;20454;-60
2021/12/28 04:21:24;;;;;;;21.90;6.00;;;8.00;99.90;;;;;;5056128;28;20462;-59
2021/12/28 04:23:51;;;;;;;15.00;5.70;;;8.10;99.90;;;;;;5056290;28;20774;-60
2021/12/28 04:26:19;;;;;;;21.23;7.20;;;8.20;99.90;;;;;;5056566;28;20508;-61
2021/12/28 04:28:47;;;;;;;18.70;5.50;;;8.30;99.90;;;;;;5056637;28;20515;-61
2021/12/28 04:31:14;;;;;;;17.47;6.07;;;8.30;99.90;;;;;;5056115;28;20478;-60
2021/12/28 04:33:43;;;;;;;14.27;4.87;;;8.30;99.90;;;;;;5056072;28;20469;-61
2021/12/28 04:36:12;;;;;;;18.07;4.70;;;8.20;99.90;;;;;;5055485;28;20551;-61
2021/12/28 04:38:41;;;;;;;22.70;5.27;;;8.20;99.90;;;;;;5056211;28;20466;-60
2021/12/28 04:41:09;;;;;;;16.30;5.67;;;8.30;99.90;;;;;;5056357;28;20469;-61
2021/12/28 04:43:37;;;;;;;14.23;4.97;;;8.20;99.90;;;;;;5055944;28;20871;-61
2021/12/28 04:46:05;;;;;;;19.80;5.00;;;8.20;99.90;;;;;;5056239;28;20560;-61
2021/12/28 04:48:34;;;;;;;14.73;4.80;;;8.20;99.90;;;;;;5056252;28;20463;-60
2021/12/28 04:51:05;;;;;;;11.73;4.60;;;8.20;99.90;;;;;;5056544;28;20535;-60
2021/12/28 04:53:32;;;;;;;16.63;4.83;;;8.10;99.90;;;;;;5059568;28;20945;-61
2021/12/28 04:55:59;;;;;;;14.10;4.93;;;8.20;99.90;;;;;;5059790;28;20792;-60
2021/12/28 04:58:26;;;;;;;15.53;5.17;;;8.20;99.90;;;;;;5059718;28;20871;-58
2021/12/28 05:00:55;;;;;;;15.13;5.97;;;8.20;99.90;;;;;;5059762;28;20465;-58
2021/12/28 05:03:22;;;;;;;15.23;4.50;;;8.20;99.90;;;;;;5059376;28;20528;-60
2021/12/28 05:05:51;;;;;;;22.37;6.80;;;8.20;99.90;;;;;;5059566;28;20801;-61
2021/12/28 05:08:21;;;;;;;19.73;6.00;;;8.20;99.90;;;;;;5059163;28;20501;-61
2021/12/28 05:10:49;;;;;;;15.20;6.07;;;8.10;99.90;;;;;;5058692;28;20467;-62
2021/12/28 05:13:16;;;;;;;12.93;6.03;;;8.10;99.90;;;;;;5059382;28;20454;-60
2021/12/28 05:15:45;;;;;;;16.63;5.73;;;8.10;99.90;;;;;;5059206;28;20498;-57
2021/12/28 05:18:14;;;;;;;14.17;7.10;;;8.10;99.90;;;;;;5059162;28;20470;-60
2021/12/28 05:20:42;;;;;;;17.10;6.70;;;8.20;99.90;;;;;;5059217;28;20466;-60
2021/12/28 05:23:09;;;;;;;20.93;6.50;;;8.10;99.90;;;;;;5058988;28;20555;-61
2021/12/28 05:25:38;;;;;;;18.60;7.33;;;8.10;99.90;;;;;;5058830;28;20520;-61
2021/12/28 05:28:05;;;;;;;15.70;5.90;;;8.10;99.90;;;;;;5059285;28;20462;-60
2021/12/28 05:30:32;;;;;;;16.13;6.70;;;8.10;99.90;;;;;;5059405;28;20512;-60
2021/12/28 05:32:59;;;;;;;17.47;6.70;;;8.10;99.90;;;;;;5058648;28;20832;-59
2021/12/28 05:35:28;;;;;;;17.30;6.50;;;8.20;99.90;;;;;;5058085;28;20951;-59
2021/12/28 05:37:55;;;;;;;16.50;6.33;;;8.20;99.90;;;;;;5046255;28;20466;-61
2021/12/28 05:40:23;;;;;;;16.83;7.57;;;8.20;99.90;;;;;;5058981;28;20524;-59
2021/12/28 05:42:51;;;;;;;11.03;6.30;;;8.20;99.90;;;;;;5058814;28;20470;-62
2021/12/28 05:45:18;;;;;;;12.13;6.00;;;8.20;99.90;;;;;;5058658;28;20462;-61
2021/12/28 05:47:48;;;;;;;16.13;6.90;;;8.20;99.90;;;;;;5058211;28;20462;-59
2021/12/28 05:50:15;;;;;;;18.90;6.93;;;8.20;99.90;;;;;;5058936;28;20560;-60
2021/12/28 05:52:42;;;;;;;14.40;6.80;;;8.30;99.90;;;;;;5058652;28;20630;-59
2021/12/28 05:55:10;;;;;;;11.27;6.10;;;8.20;99.90;;;;;;5058297;28;20498;-61
2021/12/28 05:57:37;;;;;;;21.20;9.10;;;8.20;99.90;;;;;;5058306;28;20458;-61
2021/12/28 06:00:08;;;;;;;12.87;5.93;;;8.10;99.90;;;;;;5058888;28;20462;-61
2021/12/28 06:02:35;;;;;;;12.30;5.70;;;8.20;99.90;;;;;;5058128;28;20891;-61
2021/12/28 06:05:04;;;;;;;13.13;6.13;;;8.20;99.90;;;;;;5058199;28;20528;-62
2021/12/28 06:07:31;;;;;;;13.90;6.10;;;8.20;99.90;;;;;;5058014;28;20466;-59
2021/12/28 06:09:59;;;;;;;13.10;6.87;;;8.20;99.90;;;;;;5057828;28;20486;-60
2021/12/28 06:12:26;;;;;;;19.37;6.80;;;8.20;99.90;;;;;;5056922;28;20467;-59
2021/12/28 06:14:53;;;;;;;14.07;6.53;;;8.20;99.90;;;;;;5057692;28;20470;-58
2021/12/28 06:17:22;;;;;;;13.33;6.70;;;8.20;99.90;;;;;;5058168;28;20875;-60
2021/12/28 06:19:49;;;;;;;15.00;6.40;;;8.20;99.90;;;;;;5058199;28;20508;-61
2021/12/28 06:22:16;;;;;;;11.13;6.03;;;8.20;99.90;;;;;;5058034;28;20552;-61
2021/12/28 06:24:44;;;;;;;13.80;5.43;;;8.20;99.90;;;;;;5058068;28;20516;-61
2021/12/28 06:27:11;;;;;;;13.90;5.87;;;8.30;99.90;;;;;;5057926;28;20828;-60
2021/12/28 06:29:38;;;;;;;12.33;5.60;;;8.30;99.90;;;;;;5055007;28;20462;-58
2021/12/28 06:32:06;;;;;;;16.23;5.97;;;8.30;99.90;;;;;;5057708;28;20800;-61
2021/12/28 06:34:34;;;;;;;12.33;5.10;;;8.30;99.90;;;;;;5057499;28;20516;-60
2021/12/28 06:37:03;;;;;;;8.27;6.23;;;8.30;99.90;;;;;;5057093;28;20494;-58
2021/12/28 06:39:30;;;;;;;15.33;5.73;;;8.30;99.90;;;;;;5057511;28;20946;-59
2021/12/28 06:41:57;;;;;;;10.90;5.20;;;8.30;99.90;;;;;;5057310;28;20512;-59
2021/12/28 06:44:24;;;;;;;9.30;5.50;;;8.30;99.90;;;;;;5054088;28;20473;-59
2021/12/28 06:46:51;;;;;;;7.53;5.63;;;8.30;99.90;;;;;;5057378;28;20458;-61
2021/12/28 06:49:19;;;;;;;14.40;5.87;;;8.30;99.90;;;;;;5057049;28;20864;-59
2021/12/28 06:51:47;;;;;;;11.53;5.50;;;8.20;99.90;;;;;;5056611;28;20462;-61
2021/12/28 06:54:14;;;;;;;9.10;4.83;;;8.20;99.90;;;;;;5056856;28;20572;-59
2021/12/28 06:56:41;;;;;;;11.30;5.00;;;8.30;99.90;;;;;;5057173;28;20495;-58
2021/12/28 06:59:08;;;;;;;8.80;5.37;;;8.30;99.90;;;;;;5056458;28;20806;-58
2021/12/28 07:01:35;;;;;;;11.70;5.10;;;8.30;99.90;;;;;;5056305;28;20459;-59
2021/12/28 07:04:02;;;;;;;14.13;5.10;;;8.30;99.90;;;;;;5057072;28;20462;-58
2021/12/28 07:06:29;;;;;;;11.10;5.57;;;8.30;99.90;;;;;;5057069;28;20541;-61
2021/12/28 07:08:58;;;;;;;9.73;5.13;;;8.30;99.90;;;;;;5056925;28;20478;-60
2021/12/28 07:11:25;;;;;;;14.07;5.27;;;8.20;99.90;;;;;;5056923;28;20818;-61
2021/12/28 07:13:52;;;;;;;9.57;6.53;;;8.20;99.90;;;;;;5056014;28;20515;-59
2021/12/28 07:16:20;;;;;;;13.40;8.37;;;8.20;99.90;;;;;;5057262;28;20541;-60
2021/12/28 07:18:47;;;;;;;8.53;5.30;;;8.20;99.90;;;;;;5057064;28;20462;-59
2021/12/28 07:21:14;;;;;;;11.03;6.30;;;8.30;99.90;;;;;;5056939;28;20513;-60
2021/12/28 07:23:41;;;;;;;8.03;4.93;;;8.30;99.90;;;;;;5055519;28;20512;-60
2021/12/28 07:26:11;;;;;;;10.50;5.50;;;8.30;99.90;;;;;;5056910;28;20729;-61
2021/12/28 07:28:38;;;;;;;9.00;5.10;;;8.30;99.90;;;;;;5056994;28;20462;-61
2021/12/28 07:31:05;;;;;;;11.00;5.00;;;8.30;99.90;;;;;;5056563;28;20469;-61
2021/12/28 07:33:35;;;;;;;8.70;4.60;;;8.30;99.90;;;;;;5056791;28;20462;-60
2021/12/28 07:36:03;;;;;;;13.80;4.80;;;8.20;99.90;;;;;;5056879;28;20490;-61
2021/12/28 07:38:30;;;;;;;10.03;4.33;;;8.20;99.90;;;;;;5057020;28;20496;-60
2021/12/28 07:40:57;;;;;;;9.00;4.80;;;8.20;99.90;;;;;;5055932;28;20884;-60
2021/12/28 07:43:26;;;;;;;8.20;4.80;;;8.20;99.90;;;;;;5056699;28;20484;-60
2021/12/28 07:45:53;;;;;;;6.37;4.47;;;8.20;99.90;;;;;;5056717;28;20508;-61
2021/12/28 07:48:20;;;;;;;10.97;6.03;;;8.20;99.90;;;;;;5056757;28;20466;-60
2021/12/28 07:50:47;;;;;;;8.50;4.63;;;8.20;99.90;;;;;;5056668;28;20516;-61
2021/12/28 07:53:15;;;;;;;13.30;5.27;;;8.20;99.90;;;;;;5055195;28;20462;-58
2021/12/28 07:55:42;;;;;;;7.73;4.70;;;8.20;99.90;;;;;;5048927;28;20490;-58
2021/12/28 07:58:11;;;;;;;8.30;4.50;;;8.20;99.90;;;;;;5056228;28;20884;-61
2021/12/28 08:00:40;;;;;;;10.00;4.70;;;8.20;99.90;;;;;;5056006;28;20509;-60
2021/12/28 08:03:07;;;;;;;7.23;3.77;;;8.30;99.90;;;;;;5053001;28;20454;-58
2021/12/28 08:05:36;;;;;;;11.73;4.20;;;8.30;99.90;;;;;;5055980;28;20451;-59
2021/12/28 08:08:04;;;;;;;9.17;4.17;;;8.20;99.90;;;;;;5055368;28;20486;-60
2021/12/28 08:10:34;;;;;;;9.50;4.10;;;8.20;99.90;;;;;;5056257;28;20467;-61
2021/12/28 08:13:01;;;;;;;5.27;3.60;;;8.20;99.90;;;;;;5049314;28;20462;-62
2021/12/28 08:15:28;;;;;;;8.77;3.30;;;8.20;99.90;;;;;;5055302;28;20459;-60
2021/12/28 08:17:57;;;;;;;5.13;2.67;;;8.20;99.90;;;;;;5055702;28;20508;-61
2021/12/28 08:20:24;;;;;;;5.67;3.03;;;8.20;99.90;;;;;;5056187;28;20454;-58
2021/12/28 08:22:51;;;;;;;15.07;8.30;;;8.20;99.90;;;;;;5056377;28;20462;-59
2021/12/28 08:25:22;;;;;;;19.07;13.90;;;8.20;99.90;;;;;;5057384;28;20465;-61
2021/12/28 08:27:49;;;;;;;9.07;5.93;;;8.30;99.90;;;;;;5060199;28;20462;-61
2021/12/28 08:30:19;;;;;;;9.50;4.80;;;8.30;99.90;;;;;;5060390;28;20511;-60
2021/12/28 08:32:48;;;;;;;9.60;5.53;;;8.30;99.90;;;;;;5060249;28;20757;-60
2021/12/28 08:35:17;;;;;;;5.33;4.03;;;8.30;99.90;;;;;;5059684;28;20500;-61
2021/12/28 08:37:45;;;;;;;4.63;3.47;;;8.40;99.90;;;;;;5059789;28;20466;-62
2021/12/28 08:40:15;;;;;;;7.50;3.90;;;8.40;99.90;;;;;;5060049;28;20528;-60
2021/12/28 08:42:42;;;;;;;9.10;5.70;;;8.50;99.90;;;;;;5059920;28;20466;-60
2021/12/28 08:45:10;;;;;;;7.77;4.67;;;8.50;99.90;;;;;;5059434;28;20470;-61
2021/12/28 08:47:39;;;;;;;5.20;3.80;;;8.60;99.90;;;;;;5059957;28;20468;-59
2021/12/28 08:50:08;;;;;;;6.50;4.40;;;8.60;99.90;;;;;;5059783;28;20557;-61
2021/12/28 08:52:40;;;;;;;6.03;4.30;;;8.60;99.90;;;;;;5059734;28;20465;-61
2021/12/28 08:55:13;;;;;;;10.27;5.00;;;8.60;99.90;;;;;;5057428;28;20515;-58
2021/12/28 08:57:40;;;;;;;5.53;4.63;;;8.70;99.90;;;;;;5058357;28;20494;-58
2021/12/28 09:00:11;;;;;;;5.67;4.03;;;8.60;99.90;;;;;;5060086;28;20771;-59
2021/12/28 09:02:38;;;;;;;10.27;8.63;;;8.70;99.90;;;;;;5058862;28;20519;-57
2021/12/28 09:05:08;;;;;;;10.00;6.07;;;8.70;99.90;;;;;;5059363;28;20557;-60
2021/12/28 09:07:37;;;;;;;9.17;6.37;;;8.70;99.90;;;;;;5059794;28;20776;-62
2021/12/28 09:10:05;;;;;;;6.47;5.40;;;8.70;99.90;;;;;;5059126;28;20470;-59
2021/12/28 09:12:32;;;;;;;8.70;3.93;;;8.70;99.90;;;;;;5059361;28;20557;-61
2021/12/28 09:14:59;;;;;;;4.20;3.33;;;8.70;99.90;;;;;;5058688;28;20462;-60
2021/12/28 09:17:27;;;;;;;5.13;3.70;;;8.70;99.90;;;;;;5059313;28;20563;-59
2021/12/28 09:19:54;;;;;;;4.00;3.00;;;8.60;99.90;;;;;;5059217;28;20512;-61
2021/12/28 09:22:23;;;;;;;4.83;2.97;;;8.70;99.90;;;;;;5059537;28;20466;-61
2021/12/28 09:24:51;;;;;;;4.43;2.90;;;8.70;99.90;;;;;;5058813;28;20466;-59
2021/12/28 09:27:19;;;;;;;6.40;3.93;;;8.80;99.90;;;;;;5059032;28;20875;-61
2021/12/28 09:29:46;;;;;;;7.30;3.50;;;8.80;99.90;;;;;;5058728;28;20547;-60
2021/12/28 09:32:13;;;;;;;6.93;3.63;;;8.80;99.90;;;;;;5058911;28;20953;-61
2021/12/28 09:34:42;;;;;;;7.00;3.73;;;8.80;99.90;;;;;;5059176;28;20520;-58
2021/12/28 09:37:09;;;;;;;6.87;3.70;;;8.80;99.90;;;;;;5056587;28;20579;-58
2021/12/28 09:39:36;;;;;;;5.40;2.80;;;8.80;99.90;;;;;;5056184;28;20458;-60
2021/12/28 09:42:05;;;;;;;5.70;3.30;;;8.80;99.90;;;;;;5057821;28;20458;-61
2021/12/28 09:44:34;;;;;;;9.70;6.33;;;8.90;99.90;;;;;;5058723;28;20466;-60
2021/12/28 09:47:03;;;;;;;6.17;3.40;;;8.90;99.90;;;;;;5049067;28;20462;-59
2021/12/28 09:49:31;;;;;;;9.57;5.10;;;8.90;99.90;;;;;;5046253;28;20925;-56
2021/12/28 09:51:59;;;;;;;4.93;3.80;;;8.80;99.90;;;;;;5046043;28;20475;-60
2021/12/28 09:54:27;;;;;;;8.07;6.80;;;8.80;99.90;;;;;;5045860;28;20973;-60
2021/12/28 09:56:59;;;;;;;7.57;6.77;;;8.80;99.90;;;;;;5055314;28;20490;-60
2021/12/28 09:59:29;;;;;;;7.00;5.67;;;8.80;99.90;;;;;;5058348;28;20466;-57
2021/12/28 10:01:58;;;;;;;8.57;5.77;;;8.80;99.90;;;;;;5058875;28;20462;-59
2021/12/28 10:04:25;;;;;;;7.73;4.17;;;8.80;99.90;;;;;;5059053;28;20768;-59
2021/12/28 10:06:53;;;;;;;9.13;8.13;;;8.80;99.90;;;;;;5058617;28;20466;-61
2021/12/28 10:09:25;;;;;;;8.80;7.90;;;8.90;99.90;;;;;;5057409;28;20535;-59
2021/12/28 10:11:55;;;;;;;6.20;3.73;;;8.90;99.90;;;;;;5057841;28;20451;-61
2021/12/28 10:14:23;;;;;;;5.70;4.80;;;8.90;99.90;;;;;;5058173;28;20809;-61
2021/12/28 10:16:54;;;;;;;7.23;5.60;;;8.80;99.90;;;;;;5058085;28;20775;-62
2021/12/28 10:19:36;;;;;;;4.50;3.30;;;8.80;99.90;;;;;;5057792;28;20462;-62
2021/12/28 10:22:37;;;;;;;6.13;4.10;;;8.80;99.90;;;;;;5058051;28;20512;-62
2021/12/28 10:25:12;;;;;;;3.97;3.30;;;8.80;99.90;;;;;;4967424;28;20471;-62
2021/12/28 10:27:47;;;;;;;3.07;2.37;;;8.80;99.90;;;;;;4961189;28;20565;-61
2021/12/28 10:30:21;;;;;;;2.80;2.10;;;8.90;99.90;;;;;;5012809;28;20932;-61
2021/12/28 10:32:51;;;;;;;4.97;3.50;;;8.90;99.90;;;;;;5047382;28;20477;-61
2021/12/28 10:35:20;;;;;;;3.13;2.73;;;8.90;99.90;;;;;;5053711;28;20470;-61
2021/12/28 10:37:50;;;;;;;2.90;2.10;;;8.90;99.90;;;;;;5054450;28;20544;-61
2021/12/28 10:40:24;;;;;;;3.13;2.50;;;8.90;99.90;;;;;;5048991;28;20462;-62
2021/12/28 10:42:58;;;;;;;3.07;2.50;;;8.90;99.90;;;;;;5053650;28;20536;-62
2021/12/28 10:45:29;;;;;;;2.17;1.97;;;8.90;99.90;;;;;;5048602;28;20462;-62
2021/12/28 10:47:57;;;;;;;2.70;2.03;;;8.90;99.90;;;;;;5047027;28;20517;-60
2021/12/28 10:50:37;;;;;;;2.50;1.90;;;9.00;99.90;;;;;;5044043;28;20470;-61
2021/12/28 10:53:14;;;;;;;3.93;2.23;;;8.90;99.90;;;;;;5047305;28;20474;-61
2021/12/28 10:55:51;;;;;;;2.67;1.97;;;8.90;99.90;;;;;;5043466;28;20507;-61
2021/12/28 10:58:28;;;;;;;2.50;2.23;;;9.00;99.90;;;;;;5039177;28;20845;-62
2021/12/28 11:00:56;;;;;;;2.37;1.80;;;9.00;99.90;;;;;;5054604;28;20488;-62
2021/12/28 11:03:30;;;;;;;1.87;1.77;;;9.00;99.90;;;;;;5042194;28;20470;-61
2021/12/28 11:06:05;;;;;;;2.27;2.07;;;9.00;99.90;;;;;;5052959;28;20471;-61
2021/12/28 11:08:33;;;;;;;3.30;2.47;;;9.00;99.90;;;;;;5054398;28;20490;-62
2021/12/28 11:11:03;;;;;;;4.20;2.50;;;9.10;99.90;;;;;;5056415;28;20473;-61
2021/12/28 11:13:32;;;;;;;2.30;2.10;;;9.10;99.90;;;;;;5046567;28;20458;-60
2021/12/28 11:16:00;;;;;;;3.80;2.37;;;9.10;99.90;;;;;;5054698;28;20509;-60
2021/12/28 11:18:33;;;;;;;2.57;2.13;;;9.10;99.90;;;;;;5041602;28;20544;-61
2021/12/28 11:21:02;;;;;;;2.70;2.03;;;9.10;99.90;;;;;;5048294;28;20470;-60
2021/12/28 11:23:31;;;;;;;2.30;2.10;;;9.00;99.90;;;;;;5052436;28;20883;-60
2021/12/28 11:26:12;;;;;;;2.70;2.13;;;9.10;99.90;;;;;;5052528;28;20525;-61
2021/12/28 11:28:41;;;;;;;2.93;2.27;;;9.10;99.90;;;;;;5054775;28;20508;-61
2021/12/28 11:31:13;;;;;;;6.40;2.53;;;9.10;99.90;;;;;;5052540;28;20463;-60
2021/12/28 11:33:58;;;;;;;4.30;2.50;;;9.10;99.90;;;;;;5051701;28;20761;-62
2021/12/28 11:36:27;;;;;;;5.40;2.20;;;9.20;99.90;;;;;;5055218;28;20462;-61
2021/12/28 11:38:59;;;;;;;2.40;2.17;;;9.20;99.90;;;;;;5055779;28;20466;-60
2021/12/28 11:41:26;;;;;;;2.53;2.33;;;9.20;99.90;;;;;;5054403;28;20458;-62
2021/12/28 11:43:58;;;;;;;2.93;2.50;;;9.10;99.90;;;;;;5056139;28;20466;-61
2021/12/28 11:46:26;;;;;;;2.77;2.40;;;9.20;99.90;;;;;;5057327;28;20473;-62
2021/12/28 11:48:55;;;;;;;5.23;2.70;;;9.10;99.90;;;;;;5056925;28;20458;-62
2021/12/28 11:51:25;;;;;;;3.10;2.13;;;9.10;99.90;;;;;;5056777;28;20485;-63
2021/12/28 11:53:56;;;;;;;3.63;1.97;;;9.20;99.90;;;;;;5055365;28;20462;-60
2021/12/28 11:56:28;;;;;;;7.10;3.53;;;9.10;99.90;;;;;;5055515;28;20458;-61
2021/12/28 11:59:01;;;;;;;3.10;2.30;;;9.20;99.90;;;;;;5053178;28;20462;-61
2021/12/28 12:01:49;;;;;;;2.50;2.23;;;9.30;99.90;;;;;;5058125;28;20465;-61
2021/12/28 12:04:47;;;;;;;2.57;2.23;;;9.20;99.90;;;;;;5059564;28;20504;-59
2021/12/28 12:07:22;;;;;;;3.33;2.13;;;9.30;99.90;;;;;;5056174;28;20446;-61
2021/12/28 12:10:31;;;;;;;4.57;2.80;;;9.40;99.90;;;;;;5058751;28;20488;-60
2021/12/28 12:13:16;;;;;;;7.23;3.33;;;9.30;99.90;;;;;;5056880;28;20818;-61
2021/12/28 12:15:49;;;;;;;12.73;7.47;;;9.30;99.90;;;;;;5057986;28;20547;-61
2021/12/28 12:18:20;;;;;;;33.87;19.93;;;9.30;99.90;;;;;;5058910;28;20500;-61
2021/12/28 12:20:59;;;;;;;28.27;16.83;;;9.20;99.90;;;;;;5059131;28;20437;-62
2021/12/28 12:23:29;;;;;;;11.33;6.63;;;9.20;99.90;;;;;;5056797;28;20458;-63
2021/12/28 12:26:07;;;;;;;5.07;3.53;;;9.20;99.90;;;;;;5058503;28;20801;-62
2021/12/28 12:28:46;;;;;;;5.00;4.27;;;9.10;99.90;;;;;;5059881;28;20454;-62
2021/12/28 12:31:28;;;;;;;18.77;14.43;;;9.10;99.90;;;;;;5042899;28;20839;-62
2021/12/28 12:33:56;;;;;;;6.93;3.17;;;9.00;99.90;;;;;;5054151;28;20462;-61
2021/12/28 12:36:41;;;;;;;14.30;10.33;;;9.10;99.90;;;;;;5052443;28;20470;-61
2021/12/28 12:39:10;;;;;;;9.80;7.90;;;9.10;99.90;;;;;;5053281;28;20461;-62
2021/12/28 12:41:45;;;;;;;9.10;5.73;;;9.10;99.90;;;;;;5060269;28;20454;-63
2021/12/28 12:44:15;;;;;;;6.20;5.50;;;9.10;99.90;;;;;;5060034;28;20461;-62
2021/12/28 12:46:46;;;;;;;5.57;4.27;;;9.00;99.90;;;;;;5059922;28;20504;-61
2021/12/28 12:49:22;;;;;;;3.90;3.10;;;9.00;99.90;;;;;;5059685;28;20751;-62
2021/12/28 12:51:54;;;;;;;3.50;3.00;;;9.00;99.90;;;;;;5060410;28;20450;-61
2021/12/28 12:54:32;;;;;;;2.43;2.10;;;9.10;99.90;;;;;;5059655;28;20792;-62
2021/12/28 12:57:27;;;;;;;2.20;2.00;;;9.10;99.90;;;;;;5051482;28;20462;-62
2021/12/28 13:00:01;;;;;;;6.63;2.40;;;9.20;99.90;;;;;;5058674;28;20473;-63
2021/12/28 13:02:31;;;;;;;12.87;3.60;;;9.20;99.90;;;;;;5057888;28;20473;-62